Time;durP1;ratioP1;P1;durP2;ratioP2;P2;SDS_P1;SDS_P2;PMS_P1;PMS_P2;Temp;Humidity;BMP_temperature;BMP_pressure;BME280_temperature;BME280_humidity;BME280_pressure;Samples;Min_cycle;Max_cycle;Signal;HPM_P1;HPM_P2
2023/04/19 00:00:34;;;;;;;24.43;15.90;;;12.10;95.40;;;;;;5039612;28;20482;-62
2023/04/19 00:03:02;;;;;;;30.63;15.70;;;12.10;95.40;;;;;;5061563;28;21168;-62
2023/04/19 00:05:28;;;;;;;28.60;17.67;;;12.10;95.50;;;;;;5048955;28;20462;-61
2023/04/19 00:07:55;;;;;;;29.47;18.80;;;12.10;95.40;;;;;;5059444;28;20486;-62
2023/04/19 00:10:22;;;;;;;31.70;17.23;;;12.10;95.40;;;;;;5070562;28;21057;-62
2023/04/19 00:12:49;;;;;;;29.57;17.73;;;12.10;95.40;;;;;;5071490;28;20496;-62
2023/04/19 00:15:15;;;;;;;34.23;18.70;;;12.20;95.50;;;;;;5055548;28;20474;-62
2023/04/19 00:17:42;;;;;;;28.47;17.40;;;12.20;95.40;;;;;;5047285;28;20471;-62
2023/04/19 00:20:11;;;;;;;23.40;15.27;;;12.20;95.30;;;;;;5057003;28;20485;-62
2023/04/19 00:22:38;;;;;;;26.23;17.67;;;12.20;95.40;;;;;;5058800;28;20482;-62
2023/04/19 00:25:05;;;;;;;30.73;16.47;;;12.20;95.30;;;;;;5055004;28;20489;-62
2023/04/19 00:27:32;;;;;;;28.13;17.03;;;12.30;95.40;;;;;;5047602;28;20486;-61
2023/04/19 00:29:59;;;;;;;24.47;16.10;;;12.30;95.40;;;;;;5068456;28;21029;-62
2023/04/19 00:32:25;;;;;;;30.10;16.83;;;12.30;95.30;;;;;;5058266;28;20881;-62
2023/04/19 00:34:52;;;;;;;34.23;19.60;;;12.20;95.40;;;;;;5055581;28;20474;-62
2023/04/19 00:37:20;;;;;;;33.33;21.57;;;12.20;95.40;;;;;;5049644;28;20474;-62
2023/04/19 00:39:47;;;;;;;33.93;17.50;;;12.20;95.60;;;;;;5067876;28;20895;-61
2023/04/19 00:42:13;;;;;;;28.97;17.27;;;12.10;95.50;;;;;;5062774;28;20482;-62
2023/04/19 00:44:40;;;;;;;30.70;19.10;;;12.20;95.50;;;;;;5052080;28;20475;-62
2023/04/19 00:47:07;;;;;;;35.43;19.97;;;12.10;95.70;;;;;;5062481;28;20474;-62
2023/04/19 00:49:34;;;;;;;26.47;17.37;;;12.10;95.60;;;;;;5071395;28;20497;-62
2023/04/19 00:52:01;;;;;;;25.03;16.60;;;12.10;95.60;;;;;;5044966;28;20505;-62
2023/04/19 00:54:30;;;;;;;33.23;19.17;;;12.10;95.70;;;;;;5043197;28;20887;-62
2023/04/19 00:56:57;;;;;;;28.93;18.60;;;12.10;95.70;;;;;;5077171;28;20475;-62
2023/04/19 00:59:25;;;;;;;27.70;18.07;;;12.10;95.60;;;;;;5068394;28;20502;-62
2023/04/19 01:01:51;;;;;;;31.77;19.63;;;12.10;95.70;;;;;;5064573;28;20470;-62
2023/04/19 01:04:18;;;;;;;36.60;20.43;;;12.10;95.80;;;;;;5059811;28;21053;-62
2023/04/19 01:06:45;;;;;;;27.37;17.53;;;12.10;95.80;;;;;;5070793;28;20887;-61
2023/04/19 01:09:12;;;;;;;41.27;21.13;;;12.00;95.70;;;;;;5045711;28;20482;-62
2023/04/19 01:11:40;;;;;;;29.03;18.50;;;12.00;95.80;;;;;;5064014;28;20480;-62
2023/04/19 01:14:06;;;;;;;28.43;18.77;;;12.00;96.00;;;;;;5063010;28;20476;-62
2023/04/19 01:16:35;;;;;;;32.90;18.23;;;12.00;95.90;;;;;;5048613;28;20921;-62
2023/04/19 01:19:02;;;;;;;31.93;17.73;;;12.00;95.80;;;;;;5064167;28;20483;-61
2023/04/19 01:21:29;;;;;;;33.50;20.27;;;12.00;95.80;;;;;;5050203;28;20474;-62
2023/04/19 01:23:57;;;;;;;35.13;18.00;;;12.00;95.90;;;;;;5053209;28;20529;-62
2023/04/19 01:26:24;;;;;;;36.17;20.03;;;12.00;95.90;;;;;;5064489;28;20490;-62
2023/04/19 01:28:51;;;;;;;33.20;17.70;;;12.00;96.00;;;;;;5043230;28;20575;-62
2023/04/19 01:31:17;;;;;;;37.40;19.20;;;12.00;96.00;;;;;;5067295;28;20498;-61
2023/04/19 01:33:44;;;;;;;38.17;19.07;;;12.00;96.00;;;;;;5056535;28;20497;-62
2023/04/19 01:36:11;;;;;;;40.93;20.83;;;12.00;95.90;;;;;;5055478;28;20486;-61
2023/04/19 01:38:38;;;;;;;41.40;18.60;;;12.00;96.00;;;;;;5052806;28;20549;-62
2023/04/19 01:41:06;;;;;;;36.53;17.87;;;12.00;96.10;;;;;;5072034;28;20477;-62
2023/04/19 01:43:33;;;;;;;37.30;18.53;;;12.00;96.10;;;;;;5082342;28;20857;-62
2023/04/19 01:46:00;;;;;;;46.37;20.67;;;12.00;96.00;;;;;;5083244;28;20478;-62
2023/04/19 01:48:26;;;;;;;52.03;19.93;;;12.00;96.10;;;;;;5072569;28;20478;-62
2023/04/19 01:50:53;;;;;;;68.57;20.57;;;;;;;;;;5083235;28;20474;-61
2023/04/19 01:53:20;;;;;;;56.57;22.53;;;12.00;96.10;;;;;;5069716;28;20731;-62
2023/04/19 01:55:47;;;;;;;30.27;18.40;;;12.00;96.20;;;;;;5051546;28;20517;-62
2023/04/19 01:58:15;;;;;;;42.67;19.40;;;11.90;96.20;;;;;;5060208;28;20510;-62
2023/04/19 02:00:41;;;;;;;31.00;15.87;;;11.90;96.10;;;;;;5058427;28;20551;-61
2023/04/19 02:03:08;;;;;;;35.27;19.33;;;11.80;96.10;;;;;;5077518;28;20839;-62
2023/04/19 02:05:35;;;;;;;31.57;18.27;;;11.80;96.10;;;;;;5070145;28;20594;-61
2023/04/19 02:08:02;;;;;;;41.00;16.40;;;11.80;96.10;;;;;;5066916;28;20481;-62
2023/04/19 02:10:28;;;;;;;38.57;19.20;;;11.70;96.20;;;;;;5055418;28;20490;-62
2023/04/19 02:12:55;;;;;;;48.27;19.23;;;11.70;96.10;;;;;;5055736;28;20877;-62
2023/04/19 02:15:23;;;;;;;40.97;17.20;;;11.70;96.10;;;;;;5054869;28;20540;-62
2023/04/19 02:17:50;;;;;;;41.10;15.93;;;11.60;96.10;;;;;;5047576;28;20478;-62
2023/04/19 02:20:17;;;;;;;62.03;17.80;;;;;;;;;;5057851;28;20478;-62
2023/04/19 02:22:43;;;;;;;38.83;17.03;;;11.60;96.20;;;;;;5051029;28;20490;-61
2023/04/19 02:25:10;;;;;;;42.97;19.87;;;11.60;96.20;;;;;;5061090;28;20678;-61
2023/04/19 02:27:37;;;;;;;42.47;16.43;;;11.70;96.30;;;;;;5068178;28;20482;-61
2023/04/19 02:30:04;;;;;;;33.63;17.37;;;11.60;96.10;;;;;;5064307;28;20485;-61
2023/04/19 02:32:35;;;;;;;29.87;17.53;;;11.70;96.20;;;;;;5077248;28;20480;-62
2023/04/19 02:35:02;;;;;;;23.20;14.70;;;11.60;96.10;;;;;;5069712;28;20547;-61
2023/04/19 02:37:28;;;;;;;25.30;15.87;;;11.60;96.10;;;;;;5072087;28;20840;-61
2023/04/19 02:39:55;;;;;;;24.53;15.37;;;11.60;96.10;;;;;;5078420;28;20854;-62
2023/04/19 02:42:22;;;;;;;30.37;16.50;;;11.60;96.10;;;;;;5076992;28;21211;-62
2023/04/19 02:44:48;;;;;;;27.50;15.60;;;11.60;96.20;;;;;;5086150;28;20923;-62
2023/04/19 02:47:15;;;;;;;21.73;15.03;;;11.60;96.20;;;;;;5072266;28;20838;-61
2023/04/19 02:49:43;;;;;;;25.57;15.73;;;11.60;96.20;;;;;;5063585;28;20563;-62
2023/04/19 02:52:10;;;;;;;31.33;16.37;;;11.60;96.20;;;;;;5074546;28;20892;-62
2023/04/19 02:54:37;;;;;;;22.97;14.00;;;11.50;96.20;;;;;;5068414;28;20465;-61
2023/04/19 02:57:04;;;;;;;26.43;16.20;;;11.50;96.30;;;;;;5089732;28;20836;-61
2023/04/19 02:59:31;;;;;;;23.50;14.03;;;11.50;96.30;;;;;;5087305;28;20480;-62
2023/04/19 03:01:57;;;;;;;31.43;17.93;;;11.50;96.30;;;;;;5067612;28;20477;-61
2023/04/19 03:04:24;;;;;;;26.10;16.10;;;11.50;96.30;;;;;;5062876;28;20823;-61
2023/04/19 03:07:24;;;;;;;27.27;15.63;;;11.50;96.30;;;;;;5073050;28;20473;-61
2023/04/19 03:09:50;;;;;;;27.17;17.60;;;11.40;96.30;;;;;;5075948;28;20507;-62
2023/04/19 03:12:17;;;;;;;31.80;18.20;;;11.40;96.40;;;;;;5053084;28;20478;-62
2023/04/19 03:14:44;;;;;;;24.60;15.20;;;11.40;96.40;;;;;;5067673;28;20483;-62
2023/04/19 03:17:11;;;;;;;21.00;13.77;;;11.30;96.30;;;;;;5076087;28;20479;-61
2023/04/19 03:19:37;;;;;;;24.27;15.53;;;11.30;96.50;;;;;;5085469;28;20513;-61
2023/04/19 03:22:04;;;;;;;24.40;16.57;;;11.30;96.60;;;;;;5081246;28;20480;-61
2023/04/19 03:24:33;;;;;;;23.50;15.50;;;11.20;96.60;;;;;;5064994;28;20500;-62
2023/04/19 03:26:59;;;;;;;20.40;13.50;;;11.20;96.60;;;;;;5073779;28;20579;-62
2023/04/19 03:29:26;;;;;;;22.33;13.80;;;11.20;96.70;;;;;;5073403;28;20482;-62
2023/04/19 03:31:53;;;;;;;23.70;15.20;;;11.20;96.70;;;;;;5057906;28;20489;-61
2023/04/19 03:34:20;;;;;;;28.90;17.90;;;11.20;96.80;;;;;;5087986;28;20772;-61
2023/04/19 03:36:46;;;;;;;22.67;14.17;;;11.20;96.70;;;;;;5086676;28;20532;-62
2023/04/19 03:39:13;;;;;;;28.00;16.00;;;11.10;96.80;;;;;;5063206;28;20504;-61
2023/04/19 03:41:41;;;;;;;25.10;15.87;;;11.10;96.80;;;;;;5085169;28;20473;-61
2023/04/19 03:44:08;;;;;;;25.87;16.00;;;11.10;96.80;;;;;;5070856;28;20941;-61
2023/04/19 03:46:35;;;;;;;21.07;14.30;;;11.10;96.80;;;;;;5067316;28;20481;-61
2023/04/19 03:49:01;;;;;;;27.50;16.03;;;11.20;96.80;;;;;;5053351;28;20552;-61
2023/04/19 03:51:28;;;;;;;32.03;17.17;;;11.10;96.80;;;;;;5075307;28;21228;-61
2023/04/19 03:53:55;;;;;;;23.40;13.20;;;11.10;96.70;;;;;;5077733;28;20733;-62
2023/04/19 03:56:21;;;;;;;24.50;14.67;;;11.10;96.80;;;;;;5054737;28;20483;-61
2023/04/19 03:58:52;;;;;;;24.47;15.00;;;11.10;96.80;;;;;;5051812;28;20479;-61
2023/04/19 04:01:18;;;;;;;43.73;16.20;;;11.10;96.80;;;;;;5077310;28;20511;-62
2023/04/19 04:03:45;;;;;;;24.40;14.80;;;11.00;96.80;;;;;;5085970;28;20485;-61
2023/04/19 04:06:12;;;;;;;21.00;13.97;;;11.00;96.80;;;;;;5078701;28;21001;-61
2023/04/19 04:08:38;;;;;;;28.10;14.00;;;11.00;96.80;;;;;;5072615;28;20983;-61
2023/04/19 04:11:05;;;;;;;23.60;15.50;;;11.00;96.90;;;;;;5067658;28;20497;-61
2023/04/19 04:13:32;;;;;;;25.60;14.50;;;11.00;96.90;;;;;;5077815;28;20485;-62
2023/04/19 04:16:00;;;;;;;26.60;17.27;;;11.00;96.90;;;;;;5082795;28;20477;-62
2023/04/19 04:18:27;;;;;;;25.47;14.20;;;11.00;97.00;;;;;;5078996;28;20484;-62
2023/04/19 04:20:54;;;;;;;24.07;15.20;;;11.00;97.00;;;;;;5077593;28;20985;-61
2023/04/19 04:23:21;;;;;;;29.73;13.80;;;11.00;97.00;;;;;;5064800;28;21041;-61
2023/04/19 04:25:56;;;;;;;21.63;13.13;;;11.00;97.00;;;;;;5081633;28;20908;-61
2023/04/19 04:28:23;;;;;;;26.53;15.47;;;11.10;97.00;;;;;;5070455;28;20486;-61
2023/04/19 04:30:50;;;;;;;27.00;15.17;;;11.10;97.00;;;;;;5073925;28;20474;-62
2023/04/19 04:33:18;;;;;;;23.83;14.60;;;11.10;97.00;;;;;;5070838;28;20866;-62
2023/04/19 04:35:45;;;;;;;22.70;14.47;;;11.10;97.00;;;;;;5082655;28;20474;-61
2023/04/19 04:38:12;;;;;;;27.73;14.43;;;11.10;97.00;;;;;;5072904;28;20476;-62
2023/04/19 04:40:39;;;;;;;29.90;17.57;;;11.10;97.00;;;;;;5070058;28;20832;-61
2023/04/19 04:43:06;;;;;;;21.20;13.30;;;11.10;97.00;;;;;;5078729;28;20491;-61
2023/04/19 04:45:33;;;;;;;26.93;14.63;;;11.20;97.10;;;;;;5077924;28;20462;-61
2023/04/19 04:48:00;;;;;;;20.90;12.60;;;11.10;97.10;;;;;;5064732;28;20562;-61
2023/04/19 04:50:28;;;;;;;24.10;15.77;;;11.10;96.90;;;;;;5067808;28;20497;-61
2023/04/19 04:52:55;;;;;;;26.77;14.63;;;11.20;97.00;;;;;;5073478;28;20475;-61
2023/04/19 04:55:22;;;;;;;24.83;14.77;;;11.10;97.00;;;;;;5091004;28;20490;-62
2023/04/19 04:57:48;;;;;;;26.57;14.83;;;11.20;97.10;;;;;;5096955;28;20473;-61
2023/04/19 05:00:16;;;;;;;34.67;16.53;;;11.20;97.00;;;;;;5061472;28;20493;-61
2023/04/19 05:02:43;;;;;;;22.03;14.27;;;11.30;97.00;;;;;;5060776;28;20486;-62
2023/04/19 05:05:10;;;;;;;21.37;13.43;;;11.20;96.90;;;;;;5059837;28;20493;-62
2023/04/19 05:07:39;;;;;;;32.27;14.50;;;11.30;97.00;;;;;;5084858;28;21172;-62
2023/04/19 05:10:07;;;;;;;21.93;13.70;;;11.30;97.00;;;;;;5066395;28;20990;-61
2023/04/19 05:12:34;;;;;;;25.43;13.20;;;11.30;96.90;;;;;;5083985;28;20810;-61
2023/04/19 05:15:00;;;;;;;19.30;13.50;;;11.30;97.00;;;;;;5073864;28;20482;-62
2023/04/19 05:17:27;;;;;;;21.97;14.00;;;11.40;96.90;;;;;;5088240;28;20485;-62
2023/04/19 05:19:54;;;;;;;22.40;14.20;;;;;;;;;;5073509;28;20495;-61
2023/04/19 05:22:21;;;;;;;21.70;13.93;;;11.30;96.90;;;;;;5069012;28;20503;-61
2023/04/19 05:24:49;;;;;;;19.90;13.80;;;11.40;96.90;;;;;;5067661;28;20488;-61
2023/04/19 05:27:16;;;;;;;25.20;15.57;;;11.40;97.00;;;;;;5063478;28;20564;-61
2023/04/19 05:29:42;;;;;;;24.47;14.07;;;11.40;97.00;;;;;;5080936;28;20832;-61
2023/04/19 05:32:09;;;;;;;22.03;13.30;;;11.40;96.90;;;;;;5071987;28;22026;-62
2023/04/19 05:34:36;;;;;;;27.30;13.20;;;11.40;96.90;;;;;;5089210;28;20481;-62
2023/04/19 05:37:03;;;;;;;23.53;13.43;;;11.40;96.90;;;;;;5066357;28;20522;-62
2023/04/19 05:39:30;;;;;;;21.73;13.60;;;11.40;97.00;;;;;;5085648;28;20830;-62
2023/04/19 05:41:59;;;;;;;19.90;12.93;;;11.50;97.00;;;;;;5076559;28;20484;-62
2023/04/19 05:44:25;;;;;;;34.03;15.00;;;11.50;96.80;;;;;;5084620;28;20494;-62
2023/04/19 05:46:52;;;;;;;20.23;13.00;;;11.50;96.80;;;;;;5091243;28;20484;-61
2023/04/19 05:49:19;;;;;;;25.63;14.43;;;11.50;96.90;;;;;;5074832;28;20489;-62
2023/04/19 05:51:46;;;;;;;23.87;12.43;;;11.50;97.00;;;;;;5088777;28;20490;-61
2023/04/19 05:54:13;;;;;;;28.03;15.23;;;11.50;96.80;;;;;;5060436;28;20553;-62
2023/04/19 05:56:39;;;;;;;29.93;14.00;;;11.50;97.00;;;;;;5072238;28;20482;-61
2023/04/19 05:59:10;;;;;;;30.00;13.07;;;11.50;96.80;;;;;;5096563;28;20478;-61
2023/04/19 06:01:37;;;;;;;32.40;15.17;;;11.60;97.00;;;;;;5082875;28;20478;-61
2023/04/19 06:04:04;;;;;;;47.80;16.43;;;11.60;97.00;;;;;;5058591;28;20486;-62
2023/04/19 06:06:30;;;;;;;26.33;13.20;;;11.70;97.10;;;;;;5074719;28;20484;-61
2023/04/19 06:08:57;;;;;;;35.43;12.33;;;11.60;96.90;;;;;;5064825;28;20482;-61
2023/04/19 06:11:24;;;;;;;54.10;15.43;;;11.60;96.70;;;;;;5062891;28;20493;-62
2023/04/19 06:13:51;;;;;;;35.07;15.50;;;11.60;96.80;;;;;;5068545;28;20482;-61
2023/04/19 06:16:19;;;;;;;27.80;14.53;;;11.50;96.70;;;;;;5058132;28;20484;-61
2023/04/19 06:18:46;;;;;;;30.63;13.80;;;11.70;97.10;;;;;;5066807;28;21111;-61
2023/04/19 06:21:13;;;;;;;31.00;13.37;;;11.60;96.90;;;;;;5079551;28;20482;-61
2023/04/19 06:23:39;;;;;;;30.23;12.30;;;11.70;96.90;;;;;;5065134;28;21550;-61
2023/04/19 06:26:13;;;;;;;25.10;10.57;;;11.60;96.60;;;;;;5071163;28;20481;-62
2023/04/19 06:28:40;;;;;;;30.47;12.93;;;11.60;96.80;;;;;;5087892;28;20489;-62
2023/04/19 06:31:07;;;;;;;29.80;13.80;;;11.70;97.30;;;;;;5074373;28;20470;-61
2023/04/19 06:33:35;;;;;;;51.87;13.83;;;11.60;97.10;;;;;;5065585;28;20486;-61
2023/04/19 06:36:01;;;;;;;31.27;13.20;;;11.60;97.20;;;;;;5061521;28;20872;-62
2023/04/19 06:38:29;;;;;;;39.93;13.20;;;11.60;96.90;;;;;;5085088;28;20809;-62
2023/04/19 06:40:55;;;;;;;31.73;12.73;;;11.70;97.10;;;;;;5072054;28;20564;-62
2023/04/19 06:43:22;;;;;;;38.43;13.57;;;11.70;97.00;;;;;;5077338;28;20509;-62
2023/04/19 06:45:49;;;;;;;25.43;11.80;;;11.70;96.90;;;;;;5059688;28;20478;-62
2023/04/19 06:48:15;;;;;;;42.73;15.10;;;11.80;96.90;;;;;;5086906;28;20485;-61
2023/04/19 06:50:43;;;;;;;33.90;14.10;;;11.80;96.90;;;;;;5086881;28;20677;-61
2023/04/19 06:53:10;;;;;;;22.27;12.30;;;11.90;96.90;;;;;;5076739;28;20489;-62
2023/04/19 06:55:37;;;;;;;22.93;11.70;;;11.90;96.80;;;;;;5078002;28;20473;-62
2023/04/19 06:58:03;;;;;;;28.63;13.80;;;11.90;96.80;;;;;;5083963;28;20488;-62
2023/04/19 07:00:30;;;;;;;29.40;14.23;;;12.00;97.10;;;;;;5075527;28;20474;-62
2023/04/19 07:02:58;;;;;;;56.13;11.90;;;12.00;97.00;;;;;;5070441;28;21204;-62
2023/04/19 07:05:25;;;;;;;28.83;11.43;;;12.00;96.80;;;;;;5056181;28;20491;-62
2023/04/19 07:07:53;;;;;;;24.73;13.50;;;12.00;96.70;;;;;;5087407;28;20481;-62
2023/04/19 07:10:20;;;;;;;31.67;12.83;;;12.10;97.00;;;;;;5064072;28;20857;-62
2023/04/19 07:12:47;;;;;;;18.03;11.30;;;;;;;;;;5078672;28;20475;-61
2023/04/19 07:15:13;;;;;;;22.23;10.70;;;12.20;96.90;;;;;;5068258;28;20487;-62
2023/04/19 07:17:40;;;;;;;23.93;9.97;;;12.10;96.40;;;;;;5073242;28;20485;-62
2023/04/19 07:20:08;;;;;;;17.47;11.57;;;12.20;96.80;;;;;;5070718;28;20485;-62
2023/04/19 07:22:35;;;;;;;18.47;12.43;;;12.20;96.80;;;;;;5079138;28;20518;-62
2023/04/19 07:25:04;;;;;;;21.53;12.07;;;12.30;96.50;;;;;;5062050;28;20536;-61
2023/04/19 07:27:30;;;;;;;27.37;13.57;;;12.30;96.80;;;;;;5068063;28;21154;-61
2023/04/19 07:29:57;;;;;;;20.57;12.50;;;12.30;96.70;;;;;;5069492;28;20493;-61
2023/04/19 07:32:24;;;;;;;28.07;12.73;;;12.40;96.70;;;;;;5065574;28;20485;-62
2023/04/19 07:34:50;;;;;;;17.97;11.80;;;12.40;96.50;;;;;;5090181;28;20481;-62
2023/04/19 07:37:17;;;;;;;17.97;12.03;;;12.50;96.50;;;;;;5091643;28;20865;-62
2023/04/19 07:39:44;;;;;;;24.30;11.83;;;12.50;96.30;;;;;;5082184;28;21009;-61
2023/04/19 07:42:12;;;;;;;17.17;10.70;;;12.50;96.50;;;;;;5080458;28;20564;-62
2023/04/19 07:44:39;;;;;;;20.70;12.77;;;12.60;96.80;;;;;;5080524;28;20488;-62
2023/04/19 07:47:06;;;;;;;19.80;12.07;;;12.80;96.40;;;;;;5068400;28;20567;-62
2023/04/19 07:49:33;;;;;;;25.93;13.77;;;12.80;96.10;;;;;;5057945;28;21034;-62
2023/04/19 07:52:00;;;;;;;20.57;12.03;;;12.90;96.00;;;;;;5078772;28;20474;-62
2023/04/19 07:54:27;;;;;;;46.50;11.97;;;12.80;95.90;;;;;;5093525;28;20667;-61
2023/04/19 07:56:54;;;;;;;23.80;13.27;;;12.90;95.90;;;;;;5062977;28;20470;-62
2023/04/19 07:59:22;;;;;;;20.17;10.10;;;12.90;95.80;;;;;;5080951;28;20486;-61
2023/04/19 08:01:49;;;;;;;27.43;12.97;;;13.10;95.90;;;;;;5078975;28;20490;-62
2023/04/19 08:04:18;;;;;;;25.77;12.57;;;13.10;96.00;;;;;;5068119;28;21144;-62
2023/04/19 08:06:45;;;;;;;23.13;14.73;;;13.30;96.30;;;;;;5075625;28;20470;-62
2023/04/19 08:09:12;;;;;;;25.57;12.60;;;13.40;95.70;;;;;;5063208;28;20482;-62
2023/04/19 08:11:39;;;;;;;15.77;10.80;;;13.60;96.00;;;;;;5077335;28;20542;-62
2023/04/19 08:14:06;;;;;;;17.83;12.07;;;13.80;94.80;;;;;;5048568;28;20505;-62
2023/04/19 08:16:33;;;;;;;21.60;11.90;;;14.00;95.40;;;;;;5072591;28;20493;-62
2023/04/19 08:19:00;;;;;;;13.87;10.23;;;14.10;95.00;;;;;;5068782;28;20491;-62
2023/04/19 08:21:27;;;;;;;24.77;11.27;;;14.40;95.10;;;;;;5093312;28;20482;-62
2023/04/19 08:23:53;;;;;;;17.80;11.43;;;14.40;94.20;;;;;;5058433;28;20705;-62
2023/04/19 08:26:21;;;;;;;16.80;11.90;;;14.50;94.00;;;;;;5065233;28;20778;-62
2023/04/19 08:28:48;;;;;;;21.93;12.97;;;14.60;94.00;;;;;;5085907;28;20477;-62
2023/04/19 08:31:15;;;;;;;18.90;9.90;;;14.80;93.90;;;;;;5075209;28;20486;-62
2023/04/19 08:33:43;;;;;;;15.63;12.00;;;15.10;93.40;;;;;;5057400;28;20542;-62
2023/04/19 08:36:10;;;;;;;11.30;8.47;;;15.30;93.70;;;;;;5060843;28;20494;-62
2023/04/19 08:38:37;;;;;;;15.50;9.00;;;15.30;92.70;;;;;;5072127;28;20726;-62
2023/04/19 08:41:04;;;;;;;13.53;10.10;;;15.30;92.60;;;;;;5063872;28;20482;-63
2023/04/19 08:43:35;;;;;;;16.03;11.43;;;15.40;92.60;;;;;;5072043;28;20488;-61
2023/04/19 08:46:03;;;;;;;19.20;10.20;;;15.60;92.60;;;;;;5068078;28;20473;-62
2023/04/19 08:48:31;;;;;;;16.73;11.67;;;15.90;93.10;;;;;;5093136;28;20983;-61
2023/04/19 08:51:00;;;;;;;16.50;11.70;;;16.20;94.20;;;;;;5059266;28;20486;-61
2023/04/19 08:53:29;;;;;;;19.80;11.50;;;16.60;93.40;;;;;;5056178;28;20501;-61
2023/04/19 08:55:57;;;;;;;16.87;10.70;;;16.70;91.80;;;;;;5068918;28;20997;-62
2023/04/19 08:58:24;;;;;;;29.03;11.90;;;16.90;92.60;;;;;;5043626;28;20482;-62
2023/04/19 09:00:51;;;;;;;13.60;10.63;;;17.10;93.30;;;;;;5072272;28;20478;-62
2023/04/19 09:03:18;;;;;;;14.70;10.63;;;17.30;92.40;;;;;;5077093;28;20498;-62
2023/04/19 09:05:44;;;;;;;18.60;11.80;;;17.40;91.70;;;;;;5086797;28;20994;-62
2023/04/19 09:08:25;;;;;;;13.73;10.40;;;17.20;90.80;;;;;;5080753;28;21236;-62
2023/04/19 09:10:56;;;;;;;14.60;10.53;;;16.80;91.00;;;;;;5075566;28;20737;-62
2023/04/19 09:13:23;;;;;;;17.50;11.67;;;16.50;90.60;;;;;;5067539;28;20478;-62
2023/04/19 09:15:52;;;;;;;18.80;13.43;;;16.40;91.70;;;;;;5081115;28;20537;-62
2023/04/19 09:18:19;;;;;;;21.10;11.67;;;16.30;91.50;;;;;;5053055;28;20474;-62
2023/04/19 09:20:46;;;;;;;17.27;11.80;;;16.20;91.60;;;;;;5086160;28;20474;-62
2023/04/19 09:23:15;;;;;;;14.33;9.90;;;16.20;91.50;;;;;;5075431;28;20482;-62
2023/04/19 09:25:52;;;;;;;22.63;11.27;;;16.10;91.50;;;;;;5077041;28;20478;-62
2023/04/19 09:28:19;;;;;;;14.80;11.23;;;16.00;91.60;;;;;;5070639;28;21418;-62
2023/04/19 09:30:47;;;;;;;12.30;8.90;;;15.90;91.90;;;;;;5080626;28;20486;-62
2023/04/19 09:33:13;;;;;;;16.00;10.20;;;15.80;91.40;;;;;;5065573;28;20470;-62
2023/04/19 09:35:42;;;;;;;15.30;10.60;;;15.70;91.50;;;;;;5074153;28;21036;-61
2023/04/19 09:38:09;;;;;;;16.10;11.77;;;15.60;91.20;;;;;;5058019;28;20478;-62
2023/04/19 09:40:36;;;;;;;19.40;10.53;;;15.50;91.80;;;;;;5070842;28;20478;-62
2023/04/19 09:43:04;;;;;;;13.40;10.80;;;15.50;92.00;;;;;;5072650;28;20474;-61
2023/04/19 09:45:41;;;;;;;16.80;11.70;;;15.30;92.20;;;;;;5062680;28;20879;-61
2023/04/19 09:48:08;;;;;;;14.27;10.97;;;15.30;92.30;;;;;;5070584;28;20565;-62
2023/04/19 09:50:35;;;;;;;14.87;10.17;;;15.40;92.90;;;;;;5077765;28;20470;-62
2023/04/19 09:53:02;;;;;;;14.50;9.67;;;15.40;92.20;;;;;;5069500;28;20907;-62
2023/04/19 09:55:30;;;;;;;13.50;9.47;;;15.40;92.30;;;;;;5073456;28;20844;-62
2023/04/19 09:57:57;;;;;;;13.17;9.70;;;15.10;91.90;;;;;;5078888;28;20555;-62
2023/04/19 10:00:25;;;;;;;14.80;10.87;;;15.20;92.80;;;;;;5077529;28;20483;-62
2023/04/19 10:02:56;;;;;;;16.70;11.83;;;15.10;93.00;;;;;;5083054;28;20493;-62
2023/04/19 10:05:23;;;;;;;18.67;10.70;;;15.10;92.70;;;;;;5096112;28;20492;-62
2023/04/19 10:07:51;;;;;;;21.60;10.50;;;15.20;92.90;;;;;;5089324;28;20492;-62
2023/04/19 10:10:20;;;;;;;16.13;11.13;;;15.20;92.90;;;;;;5097725;28;20493;-63
2023/04/19 10:12:51;;;;;;;18.37;11.50;;;15.30;93.10;;;;;;5089178;28;20474;-62
2023/04/19 10:15:19;;;;;;;14.43;10.80;;;15.30;92.80;;;;;;5093393;28;20505;-62
2023/04/19 10:17:48;;;;;;;13.90;10.50;;;15.40;92.80;;;;;;5095099;28;21086;-62
2023/04/19 10:20:21;;;;;;;16.23;10.43;;;15.40;92.80;;;;;;5093087;28;20470;-62
2023/04/19 10:22:48;;;;;;;17.00;10.17;;;15.50;93.10;;;;;;5082533;28;20482;-62
2023/04/19 10:25:16;;;;;;;14.67;9.33;;;15.50;92.90;;;;;;5087943;28;21114;-62
2023/04/19 10:27:45;;;;;;;16.20;9.47;;;15.60;93.60;;;;;;5095493;28;20505;-62
2023/04/19 10:30:18;;;;;;;17.97;11.73;;;15.50;92.30;;;;;;5083639;28;20832;-62
2023/04/19 10:32:51;;;;;;;16.10;9.97;;;15.50;92.70;;;;;;5074254;28;20527;-63
2023/04/19 10:35:21;;;;;;;14.53;9.97;;;15.40;92.80;;;;;;5085793;28;20505;-62
2023/04/19 10:38:20;;;;;;;14.83;10.27;;;15.30;92.80;;;;;;5092514;28;20473;-62
2023/04/19 10:41:00;;;;;;;15.63;11.03;;;15.30;93.40;;;;;;4992778;28;20994;-62
2023/04/19 10:43:29;;;;;;;32.73;10.13;;;15.30;93.20;;;;;;5074638;28;20469;-63
2023/04/19 10:46:00;;;;;;;15.70;11.63;;;15.30;92.90;;;;;;5088038;28;20473;-62
2023/04/19 10:48:37;;;;;;;14.20;10.30;;;15.40;92.90;;;;;;5075419;28;20474;-63
2023/04/19 10:51:06;;;;;;;14.60;9.77;;;15.30;93.10;;;;;;5060348;28;20731;-62
2023/04/19 10:53:46;;;;;;;25.33;14.80;;;15.20;92.70;;;;;;5066578;28;20479;-62
2023/04/19 10:56:14;;;;;;;23.93;9.63;;;15.20;93.10;;;;;;5068912;28;20846;-62
2023/04/19 10:59:12;;;;;;;17.63;10.97;;;15.10;93.10;;;;;;5102626;28;20486;-62
2023/04/19 11:01:41;;;;;;;16.63;9.77;;;15.00;93.20;;;;;;5056192;28;20479;-62
2023/04/19 11:04:10;;;;;;;23.13;13.57;;;15.00;93.50;;;;;;5087219;28;20477;-62
2023/04/19 11:06:38;;;;;;;20.20;11.10;;;15.00;93.90;;;;;;5094658;28;20485;-62
2023/04/19 11:09:06;;;;;;;21.60;12.40;;;15.10;94.20;;;;;;5094284;28;20493;-62
2023/04/19 11:11:35;;;;;;;25.10;13.57;;;15.10;94.60;;;;;;5041981;28;20490;-64
2023/04/19 11:14:03;;;;;;;23.27;11.33;;;15.30;93.90;;;;;;5076362;28;21142;-62
2023/04/19 11:16:30;;;;;;;21.03;12.87;;;15.30;93.30;;;;;;5079066;28;20886;-62
2023/04/19 11:18:56;;;;;;;23.43;12.93;;;15.40;93.50;;;;;;5064451;28;20486;-62
2023/04/19 11:21:26;;;;;;;23.93;11.87;;;15.50;93.90;;;;;;5089108;28;20811;-61
2023/04/19 11:24:06;;;;;;;26.37;12.43;;;15.50;93.50;;;;;;5055952;28;21121;-61
2023/04/19 11:26:33;;;;;;;22.53;12.83;;;15.60;93.50;;;;;;5073884;28;20506;-62
2023/04/19 11:29:01;;;;;;;24.23;12.90;;;15.70;93.50;;;;;;5081704;28;20495;-62
2023/04/19 11:31:28;;;;;;;22.07;12.47;;;15.60;93.40;;;;;;5068775;28;20516;-62
2023/04/19 11:33:54;;;;;;;27.40;11.90;;;14.00;92.50;;;;;;5088292;28;20869;-61
2023/04/19 11:36:21;;;;;;;30.23;13.23;;;15.60;93.40;;;;;;5076367;28;20544;-62
2023/04/19 11:38:49;;;;;;;25.67;10.13;;;15.60;93.90;;;;;;5077717;28;20482;-61
2023/04/19 11:41:16;;;;;;;20.60;10.27;;;15.40;92.80;;;;;;5080772;28;20565;-62
2023/04/19 11:43:45;;;;;;;22.17;12.90;;;15.30;93.00;;;;;;5066595;28;20489;-62
2023/04/19 11:46:13;;;;;;;23.20;13.07;;;15.30;93.40;;;;;;5091323;28;20481;-62
2023/04/19 11:48:51;;;;;;;28.10;13.30;;;15.20;93.40;;;;;;5062494;28;20490;-61
2023/04/19 11:51:17;;;;;;;22.50;12.13;;;15.20;93.90;;;;;;5088134;28;20494;-61
2023/04/19 11:53:45;;;;;;;22.63;12.43;;;15.10;93.50;;;;;;5075141;28;21061;-61
2023/04/19 11:56:14;;;;;;;28.53;12.20;;;15.10;93.70;;;;;;5070837;28;20506;-61
2023/04/19 11:58:44;;;;;;;19.30;11.30;;;15.00;93.70;;;;;;5062023;28;21042;-61
2023/04/19 12:01:12;;;;;;;19.80;11.20;;;15.00;94.00;;;;;;5053586;28;20483;-61
2023/04/19 12:03:42;;;;;;;21.73;13.17;;;15.00;93.80;;;;;;5071476;28;20554;-61
2023/04/19 12:06:12;;;;;;;26.93;12.87;;;15.00;93.70;;;;;;5077069;28;21195;-61
2023/04/19 12:08:42;;;;;;;22.03;9.00;;;15.00;93.20;;;;;;5078801;28;20470;-61
2023/04/19 12:11:09;;;;;;;21.57;11.63;;;14.80;93.20;;;;;;5057662;28;20490;-61
2023/04/19 12:13:39;;;;;;;22.40;12.07;;;14.80;93.70;;;;;;5046659;28;21297;-61
2023/04/19 12:16:06;;;;;;;28.07;14.17;;;14.80;93.70;;;;;;5056403;28;20890;-62
2023/04/19 12:18:47;;;;;;;75.63;22.50;;;14.80;93.90;;;;;;5035512;28;21643;-62
2023/04/19 12:21:26;;;;;;;23.57;12.87;;;14.90;94.30;;;;;;5040938;28;20955;-62
2023/04/19 12:23:54;;;;;;;26.93;13.80;;;14.90;94.60;;;;;;5056339;28;21202;-62
2023/04/19 12:26:21;;;;;;;44.03;16.00;;;15.00;94.50;;;;;;5055350;28;20767;-62
2023/04/19 12:28:49;;;;;;;21.90;13.60;;;15.00;94.50;;;;;;5054397;28;20487;-63
2023/04/19 12:31:16;;;;;;;37.43;17.27;;;15.10;93.90;;;;;;5019578;28;20490;-62